createdAt,value
2023-01-19T00:01:33.423Z,86.50
2023-01-19T00:04:01.316Z,87.00
2023-01-19T00:06:29.400Z,87.10
2023-01-19T00:08:57.443Z,87.40
2023-01-19T00:11:25.430Z,87.30
2023-01-19T00:13:53.930Z,87.10
2023-01-19T00:16:23.567Z,87.00
2023-01-19T00:18:52.183Z,86.90
2023-01-19T00:21:21.973Z,87.20
2023-01-19T00:23:52.932Z,86.70
2023-01-19T00:26:22.604Z,86.50
2023-01-19T00:28:50.888Z,86.70
2023-01-19T00:31:20.967Z,86.90
2023-01-19T00:33:49.725Z,87.00
2023-01-19T00:36:17.693Z,87.90
2023-01-19T00:38:45.693Z,87.90
2023-01-19T00:41:13.577Z,87.50
2023-01-19T00:43:41.501Z,87.20
2023-01-19T00:46:09.441Z,88.00
2023-01-19T00:48:37.545Z,87.70
2023-01-19T00:51:05.528Z,87.80
2023-01-19T00:53:33.513Z,88.60
2023-01-19T00:56:01.343Z,88.00
2023-01-19T00:58:29.470Z,88.70
2023-01-19T01:01:03.985Z,88.20
2023-01-19T01:03:32.539Z,88.20
2023-01-19T01:06:00.733Z,88.50
2023-01-19T01:08:28.689Z,88.20
2023-01-19T01:10:57.036Z,88.60
2023-01-19T01:13:27.508Z,89.10
2023-01-19T01:15:56.748Z,89.10
2023-01-19T01:18:24.617Z,89.10
2023-01-19T01:20:54.569Z,89.10
2023-01-19T01:23:23.934Z,89.60
2023-01-19T01:25:51.830Z,89.30
2023-01-19T01:28:19.791Z,89.50
2023-01-19T01:30:47.968Z,88.60
2023-01-19T01:33:15.979Z,88.60
2023-01-19T01:36:04.414Z,89.20
2023-01-19T01:38:32.415Z,89.20
2023-01-19T01:41:00.356Z,89.10
2023-01-19T01:43:41.706Z,89.20
2023-01-19T01:46:09.829Z,89.00
2023-01-19T01:48:39.243Z,89.20
2023-01-19T01:51:24.400Z,89.00
2023-01-19T01:54:00.350Z,89.50
2023-01-19T01:56:32.938Z,89.40
2023-01-19T01:59:02.019Z,90.60
2023-01-19T02:01:48.829Z,90.30
2023-01-19T02:04:16.987Z,89.40
2023-01-19T02:07:03.432Z,89.50
2023-01-19T02:09:51.530Z,90.00
2023-01-19T02:12:37.983Z,90.00
2023-01-19T02:15:06.169Z,90.60
2023-01-19T02:17:34.131Z,91.00
2023-01-19T02:20:02.264Z,91.00
2023-01-19T02:22:36.450Z,90.90
2023-01-19T02:25:05.401Z,91.10
2023-01-19T02:27:33.571Z,91.50
2023-01-19T02:30:03.950Z,91.10
2023-01-19T02:32:32.113Z,91.20
2023-01-19T02:35:00.010Z,91.50
2023-01-19T02:37:30.347Z,91.40
2023-01-19T02:40:00.837Z,91.60
2023-01-19T02:42:44.552Z,91.70
2023-01-19T02:45:14.816Z,91.80
2023-01-19T02:47:44.741Z,91.70
2023-01-19T02:50:38.154Z,91.70
2023-01-19T02:53:12.775Z,91.90
2023-01-19T02:55:43.605Z,92.00
2023-01-19T02:58:28.704Z,92.10
2023-01-19T03:01:20.008Z,92.10
2023-01-19T03:03:54.843Z,91.70
2023-01-19T03:06:22.663Z,92.00
2023-01-19T03:08:55.690Z,91.80
2023-01-19T03:11:26.733Z,91.90
2023-01-19T03:13:56.812Z,92.10
2023-01-19T03:16:24.799Z,91.80
2023-01-19T03:18:55.223Z,91.80
2023-01-19T03:21:24.622Z,91.70
2023-01-19T03:23:53.371Z,92.10
2023-01-19T03:26:25.104Z,92.10
2023-01-19T03:28:53.685Z,92.40
2023-01-19T03:31:24.017Z,92.40
2023-01-19T03:33:56.841Z,92.20
2023-01-19T03:36:30.987Z,92.30
2023-01-19T03:39:00.464Z,92.20
2023-01-19T03:41:28.836Z,92.10
2023-01-19T03:44:00.494Z,92.30
2023-01-19T03:46:28.899Z,92.20
2023-01-19T03:48:57.408Z,92.10
2023-01-19T03:51:25.431Z,92.30
2023-01-19T03:53:53.370Z,92.40
2023-01-19T03:56:22.956Z,92.40
2023-01-19T03:58:51.636Z,92.60
2023-01-19T04:01:23.295Z,92.70
2023-01-19T04:03:51.956Z,92.70
2023-01-19T04:06:21.070Z,93.00
2023-01-19T04:08:49.684Z,93.10
2023-01-19T04:11:17.824Z,92.90
2023-01-19T04:13:45.734Z,93.00
2023-01-19T04:16:13.830Z,92.90
2023-01-19T04:18:42.732Z,92.70
2023-01-19T04:21:11.312Z,92.80
2023-01-19T04:23:39.389Z,93.20
2023-01-19T04:26:07.931Z,92.90
2023-01-19T04:28:37.375Z,93.20
2023-01-19T04:31:06.201Z,93.80
2023-01-19T04:33:34.785Z,93.90
2023-01-19T04:36:03.006Z,93.90
2023-01-19T04:38:30.989Z,93.90
2023-01-19T04:40:58.852Z,93.80
2023-01-19T04:43:26.823Z,94.00
2023-01-19T04:45:54.782Z,94.40
2023-01-19T04:48:22.827Z,94.30
2023-01-19T04:50:51.211Z,94.50
2023-01-19T04:53:19.114Z,94.30
2023-01-19T04:55:47.144Z,94.20
2023-01-19T04:58:16.136Z,93.90
2023-01-19T05:00:44.118Z,93.90
2023-01-19T05:03:11.983Z,93.70
2023-01-19T05:05:39.971Z,94.20
2023-01-19T05:08:07.855Z,93.90
2023-01-19T05:10:36.915Z,93.80
2023-01-19T05:13:05.911Z,93.80
2023-01-19T05:15:33.801Z,93.90
2023-01-19T05:18:01.803Z,93.50
2023-01-19T05:20:29.712Z,93.80
2023-01-19T05:22:58.627Z,94.00
2023-01-19T05:25:26.691Z,94.20
2023-01-19T05:27:54.703Z,93.90
2023-01-19T05:30:22.587Z,93.80
2023-01-19T05:32:50.443Z,93.70
2023-01-19T05:35:27.812Z,93.90
2023-01-19T05:37:59.942Z,93.50
2023-01-19T05:40:28.973Z,94.00
2023-01-19T05:43:02.326Z,93.90
2023-01-19T05:45:30.353Z,93.90
2023-01-19T05:47:58.273Z,93.90
2023-01-19T05:50:26.277Z,93.70
2023-01-19T05:52:54.465Z,93.80
2023-01-19T05:55:22.575Z,94.30
2023-01-19T05:57:50.465Z,94.20
2023-01-19T06:00:19.976Z,94.10
2023-01-19T06:02:49.630Z,93.90
2023-01-19T06:05:17.694Z,94.00
2023-01-19T06:07:45.627Z,93.90
2023-01-19T06:10:13.597Z,93.90
2023-01-19T06:12:41.946Z,93.70
2023-01-19T06:15:10.163Z,93.70
2023-01-19T06:17:38.199Z,93.30
2023-01-19T06:20:06.881Z,93.40
2023-01-19T06:22:34.798Z,93.30
2023-01-19T06:25:03.308Z,93.00
2023-01-19T06:27:31.298Z,92.60
2023-01-19T06:29:59.153Z,92.40
2023-01-19T06:32:27.141Z,92.20
2023-01-19T06:34:54.979Z,91.90
2023-01-19T06:37:22.807Z,91.90
2023-01-19T06:39:50.770Z,91.70
2023-01-19T06:42:18.554Z,91.60
2023-01-19T06:44:48.326Z,91.50
2023-01-19T06:47:16.683Z,91.30
2023-01-19T06:49:44.601Z,91.10
2023-01-19T06:52:16.229Z,90.70
2023-01-19T06:54:45.445Z,90.10
2023-01-19T06:57:14.370Z,88.20
2023-01-19T06:59:42.378Z,86.50
2023-01-19T07:02:26.154Z,85.00
2023-01-19T07:04:56.730Z,83.50
2023-01-19T07:07:24.612Z,82.20
2023-01-19T07:09:53.964Z,81.30
2023-01-19T07:12:23.113Z,80.70
2023-01-19T07:14:51.094Z,80.30
2023-01-19T07:17:19.279Z,80.10
2023-01-19T07:19:47.385Z,79.60
2023-01-19T07:22:15.290Z,78.80
2023-01-19T07:24:43.326Z,78.20
2023-01-19T07:27:12.014Z,77.70
2023-01-19T07:29:40.230Z,77.20
2023-01-19T07:32:08.433Z,76.60
2023-01-19T07:34:36.887Z,76.40
2023-01-19T07:37:04.860Z,76.10
2023-01-19T07:39:32.897Z,75.70
2023-01-19T07:42:00.787Z,75.40
2023-01-19T07:44:29.075Z,75.00
2023-01-19T07:46:57.018Z,74.40
2023-01-19T07:49:25.388Z,73.90
2023-01-19T07:51:53.246Z,73.20
2023-01-19T07:54:21.226Z,72.20
2023-01-19T07:56:49.191Z,71.30
2023-01-19T07:59:17.120Z,70.70
2023-01-19T08:01:45.655Z,69.60
2023-01-19T08:04:13.853Z,69.20
2023-01-19T08:06:45.326Z,68.20
2023-01-19T08:09:13.696Z,67.20
2023-01-19T08:11:41.932Z,59.80
2023-01-19T08:14:10.113Z,58.20
2023-01-19T08:16:38.297Z,57.40
2023-01-19T08:19:09.610Z,56.10
2023-01-19T08:21:39.239Z,54.30
2023-01-19T08:24:07.336Z,54.50
2023-01-19T08:26:35.761Z,53.80
2023-01-19T08:29:05.489Z,52.60
2023-01-19T08:31:33.659Z,52.30
2023-01-19T08:34:01.655Z,50.50
2023-01-19T08:36:29.737Z,48.50
2023-01-19T08:38:58.204Z,49.40
2023-01-19T08:41:26.302Z,48.50
2023-01-19T08:43:54.253Z,47.70
2023-01-19T08:46:22.340Z,48.50
2023-01-19T08:48:50.768Z,47.80
2023-01-19T08:51:19.218Z,45.60
2023-01-19T08:53:47.300Z,46.20
2023-01-19T08:56:15.245Z,44.20
2023-01-19T08:58:44.619Z,44.70
2023-01-19T09:01:20.873Z,44.80
2023-01-19T09:03:49.128Z,44.10
2023-01-19T09:06:18.880Z,43.00
2023-01-19T09:08:47.588Z,40.40
2023-01-19T09:11:17.763Z,41.70
2023-01-19T09:13:45.752Z,40.20
2023-01-19T09:16:15.475Z,40.90
2023-01-19T09:18:43.418Z,40.40
2023-01-19T09:21:11.493Z,38.80
2023-01-19T09:23:39.325Z,40.30
2023-01-19T09:26:07.249Z,37.70
2023-01-19T09:28:35.267Z,38.70
2023-01-19T09:31:07.725Z,37.90
2023-01-19T09:33:36.178Z,37.50
2023-01-19T09:36:04.123Z,36.20
2023-01-19T09:38:33.216Z,37.10
2023-01-19T09:41:01.498Z,36.90
2023-01-19T09:43:29.454Z,37.10
2023-01-19T09:46:00.375Z,36.40
2023-01-19T09:48:47.971Z,34.40
2023-01-19T09:51:17.974Z,34.30
2023-01-19T09:53:55.973Z,34.40
2023-01-19T09:56:24.459Z,33.90
2023-01-19T09:58:52.654Z,34.40
2023-01-19T10:01:39.325Z,33.40
2023-01-19T10:04:27.334Z,33.40
2023-01-19T10:07:10.709Z,33.50
2023-01-19T10:09:51.123Z,33.60
2023-01-19T10:12:33.615Z,33.10
2023-01-19T10:15:05.694Z,32.20
2023-01-19T10:17:39.050Z,31.70
2023-01-19T10:20:11.676Z,30.30
2023-01-19T10:22:39.766Z,31.90
2023-01-19T10:25:14.524Z,31.20
2023-01-19T10:27:43.367Z,30.70
2023-01-19T10:30:15.836Z,30.60
2023-01-19T10:32:46.069Z,30.10
2023-01-19T10:35:23.740Z,29.40
2023-01-19T10:38:30.913Z,30.10
2023-01-19T10:41:05.996Z,31.20
2023-01-19T10:46:59.677Z,31.20
2023-01-19T10:49:31.022Z,30.20
2023-01-19T10:52:01.656Z,30.90
2023-01-19T10:54:31.850Z,30.60
2023-01-19T10:57:04.405Z,29.20
2023-01-19T10:59:34.888Z,29.50
2023-01-19T11:02:16.142Z,29.10
2023-01-19T11:04:49.947Z,28.40
2023-01-19T11:07:28.369Z,29.20
2023-01-19T11:10:20.533Z,28.60
2023-01-19T11:12:57.002Z,27.90
2023-01-19T11:15:27.189Z,28.30
2023-01-19T11:17:58.007Z,27.60
2023-01-19T11:20:31.500Z,27.50
2023-01-19T11:23:11.393Z,27.80
2023-01-19T11:29:02.137Z,27.70
2023-01-19T11:31:38.880Z,26.60
2023-01-19T11:34:27.584Z,27.00
2023-01-19T11:39:54.227Z,26.80
2023-01-19T11:42:24.555Z,26.60
2023-01-19T11:45:18.914Z,26.70
2023-01-19T11:48:08.972Z,26.90
2023-01-19T11:53:56.161Z,26.70
2023-01-19T11:56:29.871Z,26.80
2023-01-19T11:59:38.381Z,27.30
2023-01-19T12:02:38.276Z,27.40
2023-01-19T12:05:23.350Z,26.90
2023-01-19T12:08:19.022Z,26.80
2023-01-19T12:10:49.046Z,27.40
2023-01-19T12:13:30.303Z,27.90
2023-01-19T12:16:11.652Z,27.50
2023-01-19T12:18:43.808Z,28.20
2023-01-19T12:21:13.791Z,28.30
2023-01-19T12:24:48.615Z,29.50
2023-01-19T12:27:56.047Z,28.90
2023-01-19T12:30:38.891Z,28.80
2023-01-19T12:33:40.162Z,29.30
2023-01-19T12:36:10.551Z,29.50
2023-01-19T12:38:57.716Z,30.00
2023-01-19T12:41:30.840Z,29.60
2023-01-19T12:44:17.011Z,29.50
2023-01-19T12:46:47.975Z,28.30
2023-01-19T12:49:25.440Z,29.50
2023-01-19T12:52:12.054Z,30.00
2023-01-19T12:54:49.663Z,30.60
2023-01-19T12:57:23.742Z,30.80
2023-01-19T12:59:59.002Z,31.50
2023-01-19T13:02:28.181Z,32.10
2023-01-19T13:05:17.026Z,32.60
2023-01-19T13:08:03.416Z,33.40
2023-01-19T13:10:50.113Z,33.30
2023-01-19T13:13:22.778Z,34.20
2023-01-19T13:15:51.462Z,34.00
2023-01-19T13:18:21.539Z,35.30
2023-01-19T13:21:00.965Z,36.40
2023-01-19T13:23:42.584Z,35.70
2023-01-19T13:26:15.929Z,35.30
2023-01-19T13:28:49.681Z,36.50
2023-01-19T13:31:18.307Z,36.60
2023-01-19T13:33:51.112Z,35.50
2023-01-19T13:36:21.681Z,35.40
2023-01-19T13:38:51.456Z,35.20
2023-01-19T13:41:21.513Z,34.40
2023-01-19T13:43:57.354Z,35.10
2023-01-19T13:46:26.908Z,35.90
2023-01-19T13:48:57.265Z,36.60
2023-01-19T13:51:25.309Z,37.10
2023-01-19T13:54:00.008Z,38.00
2023-01-19T13:56:29.312Z,37.70
2023-01-19T13:59:01.778Z,37.50
2023-01-19T14:01:31.630Z,37.70
2023-01-19T14:04:00.244Z,37.60
2023-01-19T14:06:33.116Z,37.30
2023-01-19T14:09:27.478Z,37.10
2023-01-19T14:12:11.419Z,37.70
2023-01-19T14:14:39.797Z,37.90
2023-01-19T14:17:27.661Z,38.40
2023-01-19T14:19:59.444Z,37.40
2023-01-19T14:22:46.994Z,38.10
2023-01-19T14:25:33.709Z,40.30
2023-01-19T14:28:20.308Z,39.20
2023-01-19T14:31:01.631Z,39.60
2023-01-19T14:33:33.323Z,39.60
2023-01-19T14:36:30.825Z,39.20
2023-01-19T14:38:59.676Z,41.80
2023-01-19T14:41:31.142Z,42.50
2023-01-19T14:43:59.519Z,42.20
2023-01-19T14:46:27.661Z,41.00
2023-01-19T14:49:02.408Z,42.00
2023-01-19T14:51:30.764Z,43.50
2023-01-19T14:54:00.071Z,44.50
2023-01-19T14:56:30.020Z,45.30
2023-01-19T14:58:58.857Z,45.80
2023-01-19T15:01:31.552Z,47.30
2023-01-19T15:03:59.587Z,47.90
2023-01-19T15:06:27.877Z,48.30
2023-01-19T15:08:56.121Z,49.30
2023-01-19T15:11:25.819Z,49.70
2023-01-19T15:13:54.624Z,50.40
2023-01-19T15:16:23.688Z,50.80
2023-01-19T15:18:51.875Z,51.00
2023-01-19T15:21:20.869Z,51.60
2023-01-19T15:23:48.920Z,52.50
2023-01-19T15:26:18.124Z,53.40
2023-01-19T15:28:46.392Z,53.70
2023-01-19T15:31:16.049Z,53.90
2023-01-19T15:33:44.406Z,54.40
2023-01-19T15:36:13.695Z,54.80
2023-01-19T15:38:41.677Z,55.00
2023-01-19T15:41:20.357Z,55.90
2023-01-19T15:43:49.965Z,56.40
2023-01-19T15:46:21.072Z,56.90
2023-01-19T15:48:49.490Z,57.20
2023-01-19T15:51:18.703Z,57.20
2023-01-19T15:53:46.810Z,57.50
2023-01-19T15:56:16.003Z,57.60
2023-01-19T15:58:44.209Z,57.80
2023-01-19T16:01:15.926Z,58.30
2023-01-19T16:03:44.441Z,58.40
2023-01-19T16:06:13.166Z,58.90
2023-01-19T16:08:41.529Z,58.90
2023-01-19T16:11:11.190Z,58.90
2023-01-19T16:13:39.743Z,59.10
2023-01-19T16:16:18.748Z,59.60
2023-01-19T16:18:46.959Z,59.40
2023-01-19T16:21:15.061Z,59.80
2023-01-19T16:23:43.007Z,60.00
2023-01-19T16:26:26.374Z,60.10
2023-01-19T16:28:58.708Z,59.70
2023-01-19T16:31:26.879Z,59.50
2023-01-19T16:33:54.942Z,59.90
2023-01-19T16:36:27.166Z,59.80
2023-01-19T16:38:58.209Z,60.20
2023-01-19T16:41:26.283Z,60.10
2023-01-19T16:43:54.793Z,60.00
2023-01-19T16:46:24.007Z,60.60
2023-01-19T16:48:52.645Z,60.70
2023-01-19T16:51:20.607Z,61.10
2023-01-19T16:53:49.898Z,61.10
2023-01-19T16:56:17.988Z,61.40
2023-01-19T16:58:45.958Z,61.60
2023-01-19T17:01:20.203Z,61.20
2023-01-19T17:03:48.539Z,61.40
2023-01-19T17:06:20.920Z,62.00
2023-01-19T17:08:49.812Z,61.90
2023-01-19T17:11:22.101Z,62.50
2023-01-19T17:13:50.677Z,62.20
2023-01-19T17:16:18.652Z,62.80
2023-01-19T17:18:46.614Z,63.30
2023-01-19T17:21:18.209Z,62.90
2023-01-19T17:23:47.033Z,63.40
2023-01-19T17:26:15.072Z,62.80
2023-01-19T17:28:43.650Z,63.30
2023-01-19T17:31:16.164Z,63.10
2023-01-19T17:33:44.643Z,64.00
2023-01-19T17:36:13.965Z,64.00
2023-01-19T17:38:42.187Z,64.20
2023-01-19T17:41:14.165Z,64.50
2023-01-19T17:43:42.317Z,64.80
2023-01-19T17:46:11.020Z,64.90
2023-01-19T17:48:39.576Z,65.30
2023-01-19T17:51:09.659Z,65.30
2023-01-19T17:53:38.418Z,65.40
2023-01-19T17:56:07.532Z,65.70
2023-01-19T17:58:35.756Z,65.90
2023-01-19T18:01:18.191Z,66.80
2023-01-19T18:03:46.446Z,67.20
2023-01-19T18:06:14.983Z,67.50
2023-01-19T18:08:44.054Z,67.30
2023-01-19T18:11:12.312Z,67.90
2023-01-19T18:13:42.390Z,68.40
2023-01-19T18:16:14.833Z,68.50
2023-01-19T18:18:44.450Z,68.90
2023-01-19T18:21:13.560Z,68.60
2023-01-19T18:23:43.735Z,68.60
2023-01-19T18:26:12.850Z,68.80
2023-01-19T18:28:40.885Z,68.70
2023-01-19T18:31:10.653Z,69.00
2023-01-19T18:33:39.242Z,68.80
2023-01-19T18:36:07.912Z,69.00
2023-01-19T18:38:36.195Z,69.10
2023-01-19T18:41:05.338Z,69.20
2023-01-19T18:43:33.376Z,69.80
2023-01-19T18:46:01.465Z,69.90
2023-01-19T18:48:29.737Z,70.40
2023-01-19T18:50:58.027Z,70.20
2023-01-19T18:53:25.946Z,70.70
2023-01-19T18:55:57.861Z,71.10
2023-01-19T18:58:28.990Z,71.00
2023-01-19T19:00:57.089Z,71.40
2023-01-19T19:03:25.612Z,71.10
2023-01-19T19:05:53.605Z,71.30
2023-01-19T19:08:21.653Z,71.40
2023-01-19T19:10:49.514Z,71.60
2023-01-19T19:13:18.158Z,71.40
2023-01-19T19:15:46.255Z,71.60
2023-01-19T19:18:15.384Z,71.70
2023-01-19T19:20:43.831Z,71.40
2023-01-19T19:23:11.886Z,71.70
2023-01-19T19:25:39.859Z,71.40
2023-01-19T19:28:08.000Z,71.40
2023-01-19T19:30:38.277Z,71.50
2023-01-19T19:33:06.184Z,71.40
2023-01-19T19:35:34.202Z,71.80
2023-01-19T19:38:02.311Z,72.00
2023-01-19T19:40:30.442Z,72.10
2023-01-19T19:42:58.924Z,71.90
2023-01-19T19:45:27.233Z,72.30
2023-01-19T19:47:55.098Z,72.40
2023-01-19T19:50:23.034Z,72.50
2023-01-19T19:52:50.883Z,72.90
2023-01-19T19:55:18.801Z,72.80
2023-01-19T19:57:46.872Z,72.80
2023-01-19T20:00:15.318Z,73.00
2023-01-19T20:02:43.440Z,73.40
2023-01-19T20:05:11.573Z,73.60
2023-01-19T20:07:42.373Z,73.90
2023-01-19T20:10:10.663Z,74.00
2023-01-19T20:12:39.118Z,74.20
2023-01-19T20:15:07.121Z,74.20
2023-01-19T20:17:35.052Z,74.60
2023-01-19T20:20:04.826Z,74.80
2023-01-19T20:22:33.274Z,74.60
2023-01-19T20:25:01.173Z,75.00
2023-01-19T20:27:29.040Z,75.00
2023-01-19T20:29:58.454Z,75.00
2023-01-19T20:32:26.570Z,75.40
2023-01-19T20:34:54.537Z,75.60
2023-01-19T20:37:22.380Z,75.90
2023-01-19T20:39:50.492Z,75.90
2023-01-19T20:42:18.411Z,75.70
2023-01-19T20:44:46.389Z,76.20
2023-01-19T20:47:14.356Z,76.40
2023-01-19T20:49:42.448Z,76.50
2023-01-19T20:52:10.460Z,76.40
2023-01-19T20:54:40.116Z,76.80
2023-01-19T20:57:08.160Z,76.50
2023-01-19T20:59:38.499Z,76.80
2023-01-19T21:02:08.799Z,77.00
2023-01-19T21:04:36.800Z,77.30
2023-01-19T21:07:04.897Z,77.90
2023-01-19T21:09:32.921Z,77.80
2023-01-19T21:12:00.828Z,78.00
2023-01-19T21:14:28.790Z,77.90
2023-01-19T21:16:59.654Z,78.10
2023-01-19T21:19:27.715Z,78.20
2023-01-19T21:21:55.762Z,78.40
2023-01-19T21:24:23.776Z,78.90
2023-01-19T21:26:51.653Z,79.30
2023-01-19T21:29:19.779Z,79.20
2023-01-19T21:31:47.788Z,79.30
2023-01-19T21:34:15.710Z,79.30
2023-01-19T21:36:45.070Z,80.20
2023-01-19T21:39:13.158Z,79.80
2023-01-19T21:41:43.756Z,80.10
2023-01-19T21:44:12.853Z,80.20
2023-01-19T21:46:40.965Z,80.20
2023-01-19T21:49:13.110Z,80.30
2023-01-19T21:51:40.945Z,80.90
2023-01-19T21:54:09.032Z,80.70
2023-01-19T21:56:38.332Z,81.20
2023-01-19T21:59:06.273Z,81.30
2023-01-19T22:01:35.073Z,81.50
2023-01-19T22:04:03.110Z,82.30
2023-01-19T22:06:31.121Z,82.70
2023-01-19T22:08:59.563Z,83.10
2023-01-19T22:11:28.303Z,82.50
2023-01-19T22:13:56.844Z,82.30
2023-01-19T22:16:24.805Z,82.50
2023-01-19T22:18:54.252Z,82.10
2023-01-19T22:21:23.668Z,82.90
2023-01-19T22:23:56.113Z,82.80
2023-01-19T22:26:23.992Z,83.30
2023-01-19T22:28:55.979Z,83.70
2023-01-19T22:31:24.341Z,83.80
2023-01-19T22:33:52.708Z,83.90
2023-01-19T22:36:21.892Z,83.80
2023-01-19T22:38:57.355Z,83.60
2023-01-19T22:41:28.334Z,84.00
2023-01-19T22:43:57.102Z,83.50
2023-01-19T22:46:26.160Z,84.20
2023-01-19T22:48:54.449Z,84.80
2023-01-19T22:51:23.054Z,84.60
2023-01-19T22:53:51.547Z,84.30
2023-01-19T22:56:20.563Z,84.60
2023-01-19T22:58:48.522Z,84.80
2023-01-19T23:01:18.319Z,85.10
2023-01-19T23:03:54.398Z,85.10
2023-01-19T23:06:23.696Z,85.40
2023-01-19T23:08:52.142Z,85.70
2023-01-19T23:11:21.736Z,85.80
2023-01-19T23:13:50.440Z,85.70
2023-01-19T23:16:19.254Z,85.80
2023-01-19T23:18:47.502Z,85.50
2023-01-19T23:21:19.412Z,86.00
2023-01-19T23:23:47.330Z,86.50
2023-01-19T23:26:16.855Z,86.50
2023-01-19T23:28:45.591Z,86.20
2023-01-19T23:31:13.662Z,85.80
2023-01-19T23:33:41.933Z,86.40
2023-01-19T23:36:13.662Z,86.90
2023-01-19T23:38:42.185Z,86.90
2023-01-19T23:41:10.063Z,86.70
2023-01-19T23:43:37.976Z,87.40
2023-01-19T23:46:07.347Z,86.50
2023-01-19T23:48:35.932Z,86.60
2023-01-19T23:51:11.526Z,86.70
2023-01-19T23:53:39.809Z,87.50
2023-01-19T23:56:12.696Z,87.70
2023-01-19T23:58:41.073Z,87.60
